Time;durP1;ratioP1;P1;durP2;ratioP2;P2;SDS_P1;SDS_P2;PMS_P1;PMS_P2;Temp;Humidity;BMP_temperature;BMP_pressure;BME280_temperature;BME280_humidity;BME280_pressure;Samples;Min_cycle;Max_cycle;Signal;HPM_P1;HPM_P2
2021/01/25 00:02:20;;;;;;;27.77;12.13;;;0.10;99.90;;;;;;4984698;28;20093;-70
2021/01/25 00:04:47;;;;;;;28.40;11.30;;;0.20;99.90;;;;;;4982106;28;20050;-71
2021/01/25 00:07:19;;;;;;;25.03;12.30;;;0.30;99.90;;;;;;4983229;28;20054;-69
2021/01/25 00:09:46;;;;;;;30.83;12.77;;;0.30;99.90;;;;;;4983995;28;20039;-71
2021/01/25 00:12:14;;;;;;;30.77;12.67;;;0.20;99.90;;;;;;4985891;28;20046;-72
2021/01/25 00:14:45;;;;;;;29.07;13.73;;;0.10;99.90;;;;;;4985775;28;20101;-71
2021/01/25 00:17:12;;;;;;;27.30;12.87;;;0.20;99.90;;;;;;4972577;28;20123;-71
2021/01/25 00:19:39;;;;;;;27.70;12.57;;;0.20;99.90;;;;;;4986865;28;20042;-73
2021/01/25 00:22:05;;;;;;;28.60;12.60;;;0.10;99.90;;;;;;4986936;28;20062;-69
2021/01/25 00:24:38;;;;;;;23.90;11.53;;;0.10;99.90;;;;;;4986423;28;20049;-71
2021/01/25 00:27:05;;;;;;;29.60;12.80;;;0.10;99.90;;;;;;4983269;28;20056;-69
2021/01/25 00:29:32;;;;;;;23.50;10.83;;;0.00;99.90;;;;;;4983206;28;20057;-71
2021/01/25 00:31:59;;;;;;;26.13;12.03;;;0.00;99.90;;;;;;4980715;28;20043;-73
2021/01/25 00:34:26;;;;;;;26.53;11.23;;;0.00;99.90;;;;;;4980471;28;20066;-71
2021/01/25 00:36:53;;;;;;;23.97;11.33;;;0.00;99.90;;;;;;4980920;28;20196;-72
2021/01/25 00:39:19;;;;;;;27.03;12.00;;;0.10;99.90;;;;;;4980716;28;20050;-75
2021/01/25 00:41:46;;;;;;;22.07;10.73;;;0.10;99.90;;;;;;4982510;28;20046;-74
2021/01/25 00:44:13;;;;;;;24.53;10.87;;;0.10;99.90;;;;;;4983903;28;20109;-72
2021/01/25 00:46:39;;;;;;;22.77;11.50;;;-0.10;99.90;;;;;;4988112;28;20046;-71
2021/01/25 00:49:07;;;;;;;25.23;11.37;;;-0.10;99.90;;;;;;4991263;28;20463;-71
2021/01/25 00:51:33;;;;;;;26.53;11.77;;;-0.10;99.90;;;;;;4988331;28;20050;-73
2021/01/25 00:54:00;;;;;;;20.60;10.53;;;0.10;99.90;;;;;;4990220;28;20448;-71
2021/01/25 00:56:26;;;;;;;26.27;12.17;;;0.00;99.90;;;;;;4988543;28;20523;-71
2021/01/25 00:58:53;;;;;;;29.13;11.93;;;0.00;99.90;;;;;;4984324;28;20288;-73
2021/01/25 01:01:19;;;;;;;24.60;11.00;;;0.00;99.90;;;;;;4991370;28;20046;-72
2021/01/25 01:03:46;;;;;;;21.93;10.97;;;0.00;99.90;;;;;;4990098;28;20050;-71
2021/01/25 01:06:14;;;;;;;26.33;11.53;;;-0.10;99.90;;;;;;4990896;28;20050;-70
2021/01/25 01:08:40;;;;;;;28.07;10.23;;;-0.10;99.90;;;;;;4990846;28;20050;-72
2021/01/25 01:11:07;;;;;;;25.77;10.90;;;0.00;99.90;;;;;;4990999;28;20065;-71
2021/01/25 01:13:33;;;;;;;26.37;11.47;;;0.00;99.90;;;;;;4989532;28;20046;-73
2021/01/25 01:16:00;;;;;;;25.63;10.50;;;-0.10;99.90;;;;;;4991109;28;20084;-70
2021/01/25 01:18:26;;;;;;;26.70;11.10;;;-0.20;99.90;;;;;;4990716;28;20426;-71
2021/01/25 01:20:53;;;;;;;26.07;10.60;;;-0.10;99.90;;;;;;4990147;28;20053;-74
2021/01/25 01:23:20;;;;;;;22.10;10.70;;;-0.10;99.90;;;;;;4989359;28;20054;-70
2021/01/25 01:25:47;;;;;;;20.70;10.20;;;0.00;99.90;;;;;;4988871;28;20100;-74
2021/01/25 01:28:13;;;;;;;21.47;10.10;;;-0.20;99.90;;;;;;4985999;28;20505;-74
2021/01/25 01:30:40;;;;;;;21.97;9.63;;;-0.40;99.90;;;;;;4990149;28;20497;-70
2021/01/25 01:33:06;;;;;;;20.70;9.90;;;-0.40;99.90;;;;;;4988205;28;20101;-71
2021/01/25 01:35:33;;;;;;;27.60;10.57;;;-0.50;99.90;;;;;;4990276;28;20073;-71
2021/01/25 01:37:59;;;;;;;17.97;9.30;;;-0.50;99.90;;;;;;4981196;28;20085;-71
2021/01/25 01:40:27;;;;;;;20.40;9.27;;;-0.50;99.90;;;;;;4988695;28;20069;-73
2021/01/25 01:42:53;;;;;;;20.67;9.30;;;-0.50;99.90;;;;;;4988029;28;20046;-72
2021/01/25 01:45:20;;;;;;;21.27;9.03;;;-0.50;99.90;;;;;;4988501;28;20436;-74
2021/01/25 01:47:47;;;;;;;20.13;9.60;;;-0.60;99.90;;;;;;4987983;28;20436;-74
2021/01/25 01:50:14;;;;;;;21.03;10.17;;;-0.60;99.90;;;;;;4988701;28;20069;-72
2021/01/25 01:52:41;;;;;;;23.53;10.27;;;-0.50;99.90;;;;;;4987659;28;20589;-71
2021/01/25 01:55:09;;;;;;;27.97;11.73;;;-0.60;99.90;;;;;;4990004;28;20054;-72
2021/01/25 01:57:37;;;;;;;23.03;10.30;;;-0.70;99.90;;;;;;4986033;28;20050;-72
2021/01/25 02:00:06;;;;;;;26.00;11.60;;;-0.70;99.90;;;;;;4988964;28;20050;-74
2021/01/25 02:02:32;;;;;;;30.07;12.00;;;-0.70;99.90;;;;;;4991302;28;20050;-71
2021/01/25 02:04:59;;;;;;;24.17;12.30;;;-0.60;99.90;;;;;;4992995;28;20489;-72
2021/01/25 02:07:27;;;;;;;25.73;11.73;;;-0.70;99.90;;;;;;4992203;28;20123;-74
2021/01/25 02:09:54;;;;;;;27.03;12.50;;;-0.70;99.90;;;;;;4993827;28;20057;-74
2021/01/25 02:12:21;;;;;;;32.93;14.83;;;-0.70;99.90;;;;;;4992462;28;20061;-73
2021/01/25 02:14:49;;;;;;;34.03;13.90;;;-0.70;99.90;;;;;;4992627;28;20054;-71
2021/01/25 02:17:16;;;;;;;33.30;15.20;;;-0.70;99.90;;;;;;4988464;28;20050;-71
2021/01/25 02:19:50;;;;;;;30.07;13.43;;;-0.80;99.90;;;;;;4988316;28;20054;-73
2021/01/25 02:22:43;;;;;;;34.00;15.47;;;-0.80;99.90;;;;;;4988048;28;20050;-71
2021/01/25 02:25:20;;;;;;;36.03;15.13;;;-0.80;99.90;;;;;;4987927;28;20105;-70
2021/01/25 02:27:48;;;;;;;42.20;15.87;;;-0.80;99.90;;;;;;4988452;28;20456;-70
2021/01/25 02:30:16;;;;;;;34.10;15.50;;;-0.80;99.90;;;;;;4989138;28;20050;-71
2021/01/25 02:32:45;;;;;;;35.03;15.50;;;-0.90;99.90;;;;;;4990757;28;20046;-71
2021/01/25 02:35:15;;;;;;;37.90;15.20;;;-0.90;99.90;;;;;;4993012;28;20054;-71
2021/01/25 02:37:44;;;;;;;38.13;15.53;;;-0.90;99.90;;;;;;4990778;28;20050;-70
2021/01/25 02:40:13;;;;;;;37.43;14.57;;;-0.90;99.90;;;;;;4988299;28;20050;-71
2021/01/25 02:42:41;;;;;;;37.47;15.17;;;-0.80;99.90;;;;;;4987397;28;20054;-71
2021/01/25 02:45:10;;;;;;;29.93;13.93;;;-0.90;99.90;;;;;;4987230;28;20124;-71
2021/01/25 02:47:37;;;;;;;32.53;13.57;;;-1.00;99.90;;;;;;4987440;28;20042;-71
2021/01/25 02:50:05;;;;;;;37.50;13.90;;;-1.10;99.90;;;;;;4986991;28;20104;-73
2021/01/25 02:52:32;;;;;;;30.23;13.27;;;-1.10;99.90;;;;;;4987504;28;20058;-72
2021/01/25 02:54:58;;;;;;;35.67;14.73;;;-1.10;99.90;;;;;;4988089;28;20050;-71
2021/01/25 02:57:25;;;;;;;32.83;13.70;;;-1.10;99.90;;;;;;4987480;28;20574;-71
2021/01/25 02:59:52;;;;;;;35.17;14.10;;;-1.20;99.90;;;;;;4986998;28;20050;-73
2021/01/25 03:02:20;;;;;;;25.77;12.43;;;-1.20;99.90;;;;;;4987149;28;20054;-73
2021/01/25 03:04:46;;;;;;;28.13;12.60;;;-1.20;99.90;;;;;;4986313;28;20054;-75
2021/01/25 03:07:13;;;;;;;32.93;14.97;;;-1.20;99.90;;;;;;4987366;28;20489;-71
2021/01/25 03:09:40;;;;;;;24.20;11.40;;;-1.20;99.90;;;;;;4987357;28;20057;-71
2021/01/25 03:12:07;;;;;;;26.67;11.77;;;-1.10;99.90;;;;;;4987192;28;20050;-71
2021/01/25 03:14:34;;;;;;;27.17;11.63;;;-1.20;99.90;;;;;;4986513;28;20054;-73
2021/01/25 03:17:00;;;;;;;23.97;10.60;;;-1.00;99.90;;;;;;4983823;28;20047;-71
2021/01/25 03:19:28;;;;;;;21.07;10.13;;;-1.00;99.90;;;;;;4987108;28;20050;-71
2021/01/25 03:21:55;;;;;;;19.37;9.30;;;-1.10;99.90;;;;;;4987783;28;20453;-72
2021/01/25 03:24:22;;;;;;;20.77;9.50;;;-1.20;99.90;;;;;;4987087;28;20424;-74
2021/01/25 03:26:49;;;;;;;21.50;9.73;;;-1.20;99.90;;;;;;4979721;28;20054;-72
2021/01/25 03:29:15;;;;;;;19.77;10.10;;;-1.30;99.90;;;;;;4954710;28;20058;-74
2021/01/25 03:31:42;;;;;;;23.03;10.07;;;-1.30;99.90;;;;;;4936117;28;20054;-74
2021/01/25 03:34:09;;;;;;;20.50;9.60;;;-1.30;99.90;;;;;;4935068;28;20513;-74
2021/01/25 03:36:37;;;;;;;24.00;9.93;;;-1.30;99.90;;;;;;4936013;28;21726;-72
2021/01/25 03:39:05;;;;;;;21.87;10.17;;;-1.30;99.90;;;;;;4932552;28;20476;-74
2021/01/25 03:41:31;;;;;;;23.23;10.57;;;-1.30;99.90;;;;;;4932917;28;20046;-71
2021/01/25 03:43:58;;;;;;;22.23;10.37;;;-1.30;99.90;;;;;;4933639;28;20057;-74
2021/01/25 03:46:25;;;;;;;23.90;10.57;;;-1.30;99.90;;;;;;4939189;28;20112;-71
2021/01/25 03:48:51;;;;;;;26.80;11.73;;;-1.40;99.90;;;;;;4986167;28;20047;-71
2021/01/25 03:51:19;;;;;;;25.47;11.57;;;-1.40;99.90;;;;;;4986163;28;20054;-73
2021/01/25 03:53:48;;;;;;;29.10;13.97;;;-1.40;99.90;;;;;;4985962;28;20057;-71
2021/01/25 03:56:15;;;;;;;29.53;13.17;;;-1.30;99.90;;;;;;4986077;28;20519;-71
2021/01/25 03:58:41;;;;;;;28.97;13.87;;;-1.50;99.90;;;;;;4984498;28;20101;-71
2021/01/25 04:01:08;;;;;;;26.23;12.43;;;-1.50;99.90;;;;;;4987536;28;20424;-70
2021/01/25 04:03:35;;;;;;;28.90;13.03;;;-1.50;99.90;;;;;;4986942;28;20054;-73
2021/01/25 04:06:01;;;;;;;29.20;13.37;;;-1.50;99.90;;;;;;4987381;28;20046;-70
2021/01/25 04:08:28;;;;;;;28.37;12.77;;;-1.50;99.90;;;;;;4964561;28;20508;-70
2021/01/25 04:10:55;;;;;;;33.87;13.43;;;-1.50;99.90;;;;;;4964224;28;20576;-72
2021/01/25 04:13:22;;;;;;;31.03;13.63;;;-1.40;99.90;;;;;;4982625;28;20046;-72
2021/01/25 04:15:49;;;;;;;28.33;12.47;;;-1.40;99.90;;;;;;4987069;28;20050;-73
2021/01/25 04:18:18;;;;;;;32.67;13.70;;;-1.40;99.90;;;;;;4991195;28;20576;-71
2021/01/25 04:20:44;;;;;;;30.83;13.70;;;-1.50;99.90;;;;;;4988307;28;20046;-71
2021/01/25 04:23:11;;;;;;;36.93;14.60;;;-1.40;99.90;;;;;;4991531;28;20050;-71
2021/01/25 04:25:38;;;;;;;28.07;12.00;;;-1.40;99.90;;;;;;4992281;28;20054;-71
2021/01/25 04:28:05;;;;;;;28.47;13.80;;;-1.40;99.90;;;;;;4986583;28;20054;-74
2021/01/25 04:30:32;;;;;;;30.23;12.57;;;-1.40;99.90;;;;;;4986936;28;20073;-71
2021/01/25 04:32:58;;;;;;;34.40;13.93;;;-1.50;99.90;;;;;;4991799;28;20042;-71
2021/01/25 04:35:25;;;;;;;36.53;14.70;;;-1.60;99.90;;;;;;4992561;28;20504;-74
2021/01/25 04:37:51;;;;;;;34.47;13.40;;;-1.60;99.90;;;;;;4991888;28;20101;-71
2021/01/25 04:40:18;;;;;;;30.50;11.90;;;-1.70;99.90;;;;;;4985856;28;20069;-72
2021/01/25 04:42:46;;;;;;;26.17;11.90;;;-1.70;99.90;;;;;;4984922;28;20054;-70
2021/01/25 04:45:15;;;;;;;31.70;12.53;;;-1.70;99.90;;;;;;4991300;28;20061;-71
2021/01/25 04:47:46;;;;;;;25.37;11.37;;;-1.80;99.90;;;;;;4991413;28;20054;-72
2021/01/25 04:50:13;;;;;;;25.53;10.60;;;-1.90;99.90;;;;;;4992046;28;20054;-71
2021/01/25 04:52:40;;;;;;;28.77;11.37;;;-1.90;99.90;;;;;;4991617;28;20097;-70
2021/01/25 04:55:08;;;;;;;29.37;11.80;;;-2.00;99.90;;;;;;4991550;28;20043;-72
2021/01/25 04:57:36;;;;;;;23.20;10.30;;;-2.00;99.90;;;;;;4987789;28;20058;-73
2021/01/25 05:00:07;;;;;;;28.83;11.47;;;-2.00;99.90;;;;;;4991327;28;20050;-73
2021/01/25 05:02:36;;;;;;;26.67;11.00;;;-2.10;99.90;;;;;;4997865;28;20102;-74
2021/01/25 05:05:03;;;;;;;27.17;11.77;;;-2.10;99.90;;;;;;4997987;28;20073;-71
2021/01/25 05:07:29;;;;;;;25.97;12.03;;;-2.10;99.90;;;;;;4992411;28;20543;-72
2021/01/25 05:09:56;;;;;;;31.67;12.43;;;-2.20;99.90;;;;;;4967741;28;20054;-71
2021/01/25 05:12:23;;;;;;;29.20;12.67;;;-2.20;99.90;;;;;;4983807;28;20050;-70
2021/01/25 05:14:49;;;;;;;29.20;12.17;;;-2.20;99.90;;;;;;4992247;28;20047;-71
2021/01/25 05:17:16;;;;;;;25.77;11.03;;;-2.30;99.90;;;;;;4991609;28;20050;-71
2021/01/25 05:19:45;;;;;;;27.47;11.80;;;-2.30;99.90;;;;;;4993054;28;20494;-72
2021/01/25 05:22:15;;;;;;;32.40;11.50;;;-2.40;99.90;;;;;;4993071;28;20046;-71
2021/01/25 05:24:46;;;;;;;30.43;11.73;;;-2.30;99.90;;;;;;4992293;28;20492;-71
2021/01/25 05:27:21;;;;;;;26.30;11.03;;;-2.40;99.90;;;;;;4990991;28;20046;-71
2021/01/25 05:29:48;;;;;;;29.00;12.45;;;-2.40;99.90;;;;;;4990570;28;20181;-71
2021/01/25 05:32:17;;;;;;;26.20;12.00;;;-2.40;99.90;;;;;;4990353;28;20130;-71
2021/01/25 05:34:45;;;;;;;26.70;11.37;;;-2.40;99.90;;;;;;4989964;28;20050;-71
2021/01/25 05:37:14;;;;;;;27.87;11.53;;;-2.50;99.90;;;;;;4993974;28;20048;-71
2021/01/25 05:39:44;;;;;;;31.60;11.13;;;-2.50;99.90;;;;;;4989366;28;20198;-72
2021/01/25 05:42:11;;;;;;;24.63;10.37;;;-2.50;99.90;;;;;;4990750;28;20050;-72
2021/01/25 05:44:38;;;;;;;28.77;12.47;;;-2.50;99.90;;;;;;4991148;28;20061;-70
2021/01/25 05:47:05;;;;;;;25.20;10.47;;;-2.50;99.90;;;;;;4992708;28;20054;-73
2021/01/25 05:49:32;;;;;;;25.83;10.43;;;-2.50;99.90;;;;;;4992762;28;20054;-71
2021/01/25 05:52:00;;;;;;;27.33;10.53;;;-2.50;99.90;;;;;;4994160;28;20531;-73
2021/01/25 05:54:27;;;;;;;28.20;12.13;;;-2.50;99.90;;;;;;4994029;28;20050;-70
2021/01/25 05:56:53;;;;;;;29.30;11.47;;;-2.60;99.90;;;;;;4996253;28;20373;-73
2021/01/25 05:59:21;;;;;;;27.40;11.13;;;-2.50;99.90;;;;;;4985884;28;20057;-71
2021/01/25 06:01:48;;;;;;;26.63;11.70;;;-2.60;99.90;;;;;;4990667;28;20112;-70
2021/01/25 06:04:17;;;;;;;26.33;11.27;;;-2.50;99.90;;;;;;4989922;28;20480;-70
2021/01/25 06:06:56;;;;;;;27.27;11.80;;;-2.40;99.90;;;;;;4990193;28;20058;-73
2021/01/25 06:09:29;;;;;;;28.77;11.83;;;-2.40;99.90;;;;;;4990349;28;20061;-72
2021/01/25 06:12:02;;;;;;;30.93;11.97;;;-2.10;99.90;;;;;;4986216;28;20081;-71
2021/01/25 06:14:37;;;;;;;30.67;13.10;;;-2.20;99.90;;;;;;4988641;28;20093;-70
2021/01/25 06:17:04;;;;;;;27.67;13.37;;;-2.20;99.90;;;;;;4989137;28;20133;-76
2021/01/25 06:19:33;;;;;;;25.53;12.07;;;-2.20;99.90;;;;;;4992772;28;20050;-73
2021/01/25 06:22:00;;;;;;;26.90;11.10;;;-2.20;99.90;;;;;;4998574;28;20050;-73
2021/01/25 06:24:29;;;;;;;30.63;12.30;;;-2.20;99.90;;;;;;4996651;28;20046;-71
2021/01/25 06:26:56;;;;;;;31.20;12.87;;;-2.10;99.90;;;;;;4981972;28;20210;-72
2021/01/25 06:29:23;;;;;;;29.93;12.40;;;-2.00;99.90;;;;;;4989069;28;20104;-70
2021/01/25 06:31:55;;;;;;;27.97;11.93;;;-2.10;99.90;;;;;;4993654;28;20058;-73
2021/01/25 06:34:22;;;;;;;30.07;12.13;;;-2.10;99.90;;;;;;5001753;28;20046;-71
2021/01/25 06:36:51;;;;;;;26.27;11.37;;;-2.10;99.90;;;;;;5002397;28;20056;-74
2021/01/25 06:39:24;;;;;;;28.67;11.40;;;-2.00;99.90;;;;;;5003841;28;20058;-71
2021/01/25 06:42:01;;;;;;;26.70;11.80;;;-2.00;99.90;;;;;;4962081;28;20110;-73
2021/01/25 06:44:29;;;;;;;23.97;10.40;;;-2.00;99.90;;;;;;4948847;28;20074;-72
2021/01/25 06:46:57;;;;;;;23.90;10.70;;;-1.90;99.90;;;;;;4955995;28;20105;-72
2021/01/25 06:49:25;;;;;;;25.33;11.47;;;-1.80;99.90;;;;;;4961847;28;20114;-73
2021/01/25 06:51:52;;;;;;;23.83;11.00;;;-1.90;99.90;;;;;;4945105;28;20046;-74
2021/01/25 06:54:23;;;;;;;24.60;11.43;;;-1.90;99.90;;;;;;4934291;28;20051;-73
2021/01/25 06:56:55;;;;;;;22.97;11.30;;;-1.90;99.90;;;;;;4936203;28;20054;-73
2021/01/25 06:59:23;;;;;;;25.73;10.60;;;-1.90;99.90;;;;;;4944199;28;20258;-72
2021/01/25 07:01:51;;;;;;;28.50;12.93;;;-1.90;99.90;;;;;;4947309;28;20057;-71
2021/01/25 07:04:20;;;;;;;25.43;12.07;;;-1.90;99.90;;;;;;4950483;28;20046;-71
2021/01/25 07:06:51;;;;;;;24.30;11.87;;;-1.90;99.90;;;;;;4943822;28;20046;-73
2021/01/25 07:09:26;;;;;;;22.80;10.63;;;-1.90;99.90;;;;;;4933371;28;20053;-76
2021/01/25 07:11:56;;;;;;;23.70;11.17;;;-1.90;99.90;;;;;;4941997;28;20094;-72
2021/01/25 07:14:34;;;;;;;25.37;10.87;;;-1.80;99.90;;;;;;4933086;28;21570;-72
2021/01/25 07:17:11;;;;;;;34.57;11.23;;;-1.80;99.90;;;;;;4986230;28;20050;-71
2021/01/25 07:19:41;;;;;;;22.73;10.87;;;-1.90;99.90;;;;;;4986873;28;20061;-69
2021/01/25 07:22:08;;;;;;;30.83;11.57;;;-1.90;99.90;;;;;;4985967;28;20085;-73
2021/01/25 07:24:37;;;;;;;27.87;10.30;;;-2.00;99.90;;;;;;4985710;28;20058;-70
2021/01/25 07:27:06;;;;;;;24.13;10.00;;;-1.90;99.90;;;;;;4985879;28;20054;-74
2021/01/25 07:29:33;;;;;;;23.67;9.90;;;-1.90;99.90;;;;;;4985767;28;20061;-74
2021/01/25 07:32:01;;;;;;;25.97;9.83;;;-1.90;99.90;;;;;;4986456;28;20137;-77
2021/01/25 07:34:30;;;;;;;24.70;9.83;;;-1.90;99.90;;;;;;4988059;28;20489;-72
2021/01/25 07:36:58;;;;;;;27.53;11.70;;;-1.90;99.90;;;;;;4929623;28;20055;-71
2021/01/25 07:39:25;;;;;;;32.17;12.63;;;-1.90;99.90;;;;;;4925682;28;21589;-74
2021/01/25 07:41:52;;;;;;;39.83;14.30;;;-1.80;99.90;;;;;;4923215;28;20942;-73
2021/01/25 07:44:26;;;;;;;37.00;13.47;;;-1.90;99.90;;;;;;4959346;28;20141;-73
2021/01/25 07:47:04;;;;;;;26.27;11.33;;;-1.70;99.90;;;;;;4985886;28;20107;-70
2021/01/25 07:49:36;;;;;;;26.33;10.67;;;-1.70;99.90;;;;;;4985959;28;20046;-71
2021/01/25 07:52:03;;;;;;;27.90;11.10;;;-1.80;99.90;;;;;;4985895;28;20054;-75
2021/01/25 07:54:38;;;;;;;21.07;9.93;;;-1.70;99.90;;;;;;4985356;28;20066;-75
2021/01/25 07:57:12;;;;;;;22.20;11.07;;;-1.70;99.90;;;;;;4986808;28;20054;-72
2021/01/25 07:59:40;;;;;;;26.97;12.57;;;-1.70;99.90;;;;;;4983886;28;20086;-69
2021/01/25 08:02:11;;;;;;;23.07;10.67;;;-1.60;99.90;;;;;;4986365;28;20047;-70
2021/01/25 08:04:41;;;;;;;25.40;10.67;;;-1.60;99.90;;;;;;4985790;28;20053;-69
2021/01/25 08:07:14;;;;;;;21.53;10.10;;;-1.50;99.90;;;;;;4978834;28;20061;-68
2021/01/25 08:09:43;;;;;;;26.43;10.97;;;-1.50;99.90;;;;;;4987052;28;20057;-71
2021/01/25 08:12:11;;;;;;;20.40;9.43;;;-1.40;99.90;;;;;;4951940;28;20894;-69
2021/01/25 08:14:46;;;;;;;20.47;9.00;;;-1.20;99.90;;;;;;4922257;28;20110;-70
2021/01/25 08:17:29;;;;;;;17.83;8.80;;;-1.20;99.90;;;;;;4923999;28;20542;-70
2021/01/25 08:20:01;;;;;;;21.43;9.43;;;-1.20;99.90;;;;;;4924454;28;20632;-71
2021/01/25 08:22:35;;;;;;;19.57;8.73;;;-1.30;99.90;;;;;;4929950;28;20467;-72
2021/01/25 08:25:03;;;;;;;26.77;10.57;;;-1.10;99.90;;;;;;4928690;28;20512;-71
2021/01/25 08:27:31;;;;;;;19.33;9.83;;;-1.10;99.90;;;;;;4930983;28;20047;-71
2021/01/25 08:30:03;;;;;;;22.53;9.70;;;-1.00;99.90;;;;;;4929668;28;20108;-73
2021/01/25 08:32:39;;;;;;;22.93;9.73;;;-0.60;99.90;;;;;;4924359;28;20109;-74
2021/01/25 08:35:07;;;;;;;17.87;8.70;;;-0.60;99.90;;;;;;4934770;28;20051;-74
2021/01/25 08:37:35;;;;;;;26.17;9.43;;;-0.70;99.90;;;;;;4927862;28;20055;-70
2021/01/25 08:40:12;;;;;;;20.87;11.10;;;-0.80;99.90;;;;;;4929138;28;20046;-72
2021/01/25 08:42:39;;;;;;;23.77;11.30;;;-0.80;99.90;;;;;;4927438;28;20043;-73
2021/01/25 08:45:10;;;;;;;23.93;11.23;;;-0.70;99.90;;;;;;4920810;28;20505;-71
2021/01/25 08:47:37;;;;;;;21.57;10.80;;;-0.70;99.90;;;;;;4921795;28;21241;-74
2021/01/25 08:50:17;;;;;;;27.77;11.73;;;-0.60;99.90;;;;;;4921554;28;20241;-73
2021/01/25 08:52:44;;;;;;;25.93;12.00;;;-0.50;99.90;;;;;;4909700;28;20049;-74
2021/01/25 08:55:14;;;;;;;23.57;11.90;;;-0.50;99.90;;;;;;4980551;28;20178;-72
2021/01/25 08:57:43;;;;;;;24.47;11.03;;;-0.40;99.90;;;;;;4981778;28;20055;-74
2021/01/25 09:00:13;;;;;;;24.63;11.87;;;-0.40;99.90;;;;;;4972927;28;20070;-71
2021/01/25 09:02:40;;;;;;;32.47;12.60;;;-0.30;99.90;;;;;;4980428;28;20543;-74
2021/01/25 09:05:07;;;;;;;35.30;13.37;;;-0.30;99.90;;;;;;4985536;28;20045;-71
2021/01/25 09:07:37;;;;;;;41.97;12.40;;;-0.20;99.90;;;;;;4986478;28;20175;-73
2021/01/25 09:10:04;;;;;;;29.47;10.93;;;-0.10;99.90;;;;;;4985484;28;20057;-73
2021/01/25 09:12:31;;;;;;;28.80;11.40;;;0.00;99.90;;;;;;4953857;28;20059;-72
2021/01/25 09:14:58;;;;;;;32.57;13.00;;;0.00;99.90;;;;;;4906662;28;20705;-73
2021/01/25 09:17:25;;;;;;;35.90;14.13;;;0.20;99.90;;;;;;4914852;28;20058;-70
2021/01/25 09:19:52;;;;;;;30.23;14.60;;;0.30;99.90;;;;;;4898708;28;20078;-69
2021/01/25 09:22:19;;;;;;;31.43;14.17;;;0.50;99.90;;;;;;4895433;28;20409;-72
2021/01/25 09:24:46;;;;;;;33.83;14.37;;;0.40;99.90;;;;;;4903536;28;20054;-71
2021/01/25 09:27:12;;;;;;;33.97;14.80;;;0.50;99.90;;;;;;4892258;28;20166;-70
2021/01/25 09:29:39;;;;;;;27.83;12.93;;;0.40;99.90;;;;;;4913363;28;20134;-71
2021/01/25 09:32:07;;;;;;;28.70;13.97;;;0.30;99.90;;;;;;4904184;28;20054;-74
2021/01/25 09:34:37;;;;;;;32.37;14.93;;;0.20;99.90;;;;;;4910668;28;20054;-67
2021/01/25 09:37:05;;;;;;;31.57;14.27;;;0.20;99.90;;;;;;4918048;28;20077;-70
2021/01/25 09:39:31;;;;;;;36.20;15.23;;;0.20;99.90;;;;;;4911490;28;20076;-68
2021/01/25 09:41:58;;;;;;;29.30;14.17;;;0.20;99.90;;;;;;4910428;28;20050;-67
2021/01/25 09:44:25;;;;;;;28.63;14.40;;;0.40;99.90;;;;;;4903547;28;21627;-68
2021/01/25 09:46:53;;;;;;;29.37;13.57;;;0.20;99.90;;;;;;4902343;28;20050;-67
2021/01/25 09:49:20;;;;;;;28.37;13.80;;;0.30;99.90;;;;;;4906687;28;20054;-67
2021/01/25 09:51:47;;;;;;;31.13;12.37;;;0.50;99.90;;;;;;4915763;28;20054;-67
2021/01/25 09:54:14;;;;;;;25.40;12.87;;;0.60;99.90;;;;;;4902545;28;20050;-67
2021/01/25 09:56:41;;;;;;;26.93;13.23;;;0.80;99.90;;;;;;4904247;28;20471;-68
2021/01/25 09:59:07;;;;;;;29.07;13.07;;;0.90;99.90;;;;;;4899915;28;20050;-67
2021/01/25 10:01:34;;;;;;;24.90;12.67;;;1.00;99.90;;;;;;4899267;28;20407;-68
2021/01/25 10:04:01;;;;;;;25.63;12.77;;;1.10;99.90;;;;;;4891663;28;20051;-68
2021/01/25 10:06:28;;;;;;;32.17;13.70;;;1.30;99.90;;;;;;4893418;28;20066;-68
2021/01/25 10:08:55;;;;;;;25.00;12.30;;;1.30;99.90;;;;;;4901495;28;20873;-67
2021/01/25 10:11:23;;;;;;;32.13;14.00;;;1.50;99.90;;;;;;4895094;28;20298;-67
2021/01/25 10:13:49;;;;;;;23.97;13.00;;;1.50;99.90;;;;;;4892410;28;20061;-68
2021/01/25 10:16:16;;;;;;;27.33;12.63;;;1.50;99.90;;;;;;4900912;28;21128;-67
2021/01/25 10:18:43;;;;;;;31.60;13.93;;;1.50;99.90;;;;;;4894968;28;20046;-68
2021/01/25 10:21:09;;;;;;;23.70;12.20;;;1.40;99.90;;;;;;4903165;28;20090;-68
2021/01/25 10:23:36;;;;;;;27.23;12.90;;;1.60;99.90;;;;;;4895740;28;20042;-69
2021/01/25 10:26:03;;;;;;;24.73;12.30;;;1.70;99.90;;;;;;4899510;28;20054;-69
2021/01/25 10:28:30;;;;;;;23.57;12.23;;;1.90;99.90;;;;;;4915451;28;20061;-69
2021/01/25 10:30:57;;;;;;;24.70;11.63;;;2.90;99.90;;;;;;4907821;28;20268;-71
2021/01/25 10:33:24;;;;;;;23.90;11.40;;;3.80;99.90;;;;;;4897232;28;20056;-73
2021/01/25 10:35:50;;;;;;;24.00;12.53;;;4.70;99.90;;;;;;4899260;28;20460;-72
2021/01/25 10:38:17;;;;;;;;;;;5.00;99.90;;;;;;4897523;28;20081;-74
2021/01/25 10:40:43;;;;;;;23.60;12.00;;;5.00;99.90;;;;;;4903504;28;19926;-75
2021/01/25 10:43:11;;;;;;;19.63;11.77;;;5.10;99.90;;;;;;4919773;28;20090;-75
2021/01/25 10:45:38;;;;;;;23.90;12.15;;;5.20;99.90;;;;;;4902419;28;20145;-69
2021/01/25 10:48:05;;;;;;;24.30;13.52;;;5.00;99.90;;;;;;4899339;28;20096;-74
2021/01/25 10:50:31;;;;;;;22.92;12.88;;;4.90;99.90;;;;;;4926934;28;20055;-73
2021/01/25 10:52:58;;;;;;;24.77;12.57;;;4.70;99.90;;;;;;4926324;28;20065;-76
2021/01/25 10:55:25;;;;;;;28.52;13.63;;;4.50;99.90;;;;;;4924474;28;20364;-76
2021/01/25 10:57:51;;;;;;;24.67;13.90;;;4.20;99.90;;;;;;4932312;28;20500;-74
2021/01/25 11:00:19;;;;;;;;;;;4.10;99.90;;;;;;4921124;28;20548;-74
2021/01/25 11:02:47;;;;;;;21.30;11.23;;;4.10;99.90;;;;;;4922289;28;19925;-77
2021/01/25 11:05:15;;;;;;;23.87;11.53;;;3.80;99.90;;;;;;4922671;28;20421;-78
2021/01/25 11:07:42;;;;;;;24.10;11.00;;;4.00;99.90;;;;;;4931981;28;20444;-77
2021/01/25 11:10:12;;;;;;;20.60;10.40;;;4.10;99.90;;;;;;4915376;28;20347;-77
2021/01/25 11:12:38;;;;;;;19.23;10.07;;;3.90;99.90;;;;;;4919316;28;20055;-77
2021/01/25 11:15:07;;;;;;;21.23;10.40;;;4.10;99.90;;;;;;4924563;28;20047;-77
2021/01/25 11:17:34;;;;;;;22.43;11.20;;;4.50;99.90;;;;;;4926320;28;20050;-76
2021/01/25 11:20:01;;;;;;;26.53;11.63;;;4.40;99.90;;;;;;4928552;28;20054;-77
2021/01/25 11:22:27;;;;;;;21.97;11.30;;;4.40;99.90;;;;;;4930808;28;20509;-74
2021/01/25 11:24:54;;;;;;;20.40;11.17;;;4.70;99.90;;;;;;4946237;28;20052;-72
2021/01/25 11:27:20;;;;;;;21.57;11.40;;;4.50;99.90;;;;;;4985453;28;20053;-73
2021/01/25 11:29:47;;;;;;;23.23;10.83;;;3.90;99.90;;;;;;4984153;28;20054;-72
2021/01/25 11:32:14;;;;;;;22.20;11.60;;;3.60;99.90;;;;;;4984412;28;20463;-72
2021/01/25 11:34:41;;;;;;;21.03;11.40;;;3.50;99.90;;;;;;4984611;28;20054;-73
2021/01/25 11:37:09;;;;;;;23.93;11.17;;;3.30;99.90;;;;;;4986318;28;20054;-72
2021/01/25 11:39:35;;;;;;;24.23;11.53;;;3.00;99.90;;;;;;4986085;28;20082;-73
2021/01/25 11:42:02;;;;;;;25.40;11.70;;;3.00;99.90;;;;;;4986446;28;20057;-72
2021/01/25 11:44:29;;;;;;;19.23;9.23;;;3.30;99.90;;;;;;4940006;28;20051;-70
2021/01/25 11:46:55;;;;;;;14.97;8.93;;;3.50;99.90;;;;;;4924587;28;20057;-72
2021/01/25 11:49:22;;;;;;;16.67;8.90;;;3.20;99.90;;;;;;4936014;28;20174;-71
2021/01/25 11:51:50;;;;;;;16.93;8.70;;;2.90;99.90;;;;;;4926968;28;20611;-70
2021/01/25 11:54:18;;;;;;;15.73;8.77;;;3.10;99.90;;;;;;4977044;28;20054;-70
2021/01/25 11:56:45;;;;;;;16.43;9.30;;;2.90;99.90;;;;;;4984456;28;20144;-70
2021/01/25 11:59:11;;;;;;;16.20;9.33;;;2.80;99.90;;;;;;4983704;28;20058;-70
2021/01/25 12:01:38;;;;;;;15.83;9.50;;;2.60;99.90;;;;;;4973780;28;20047;-71
2021/01/25 12:04:05;;;;;;;18.03;8.33;;;2.80;99.90;;;;;;4982340;28;20049;-70
2021/01/25 12:06:32;;;;;;;19.73;9.77;;;2.70;99.90;;;;;;4991764;28;20058;-71
2021/01/25 12:08:59;;;;;;;19.00;9.63;;;2.40;99.90;;;;;;5000262;28;20046;-70
2021/01/25 12:11:26;;;;;;;16.33;9.30;;;2.30;99.90;;;;;;4986986;28;20058;-71
2021/01/25 12:13:52;;;;;;;17.57;9.40;;;2.60;99.90;;;;;;4964597;28;20042;-71
2021/01/25 12:16:19;;;;;;;18.07;9.23;;;2.70;99.90;;;;;;4978243;28;20053;-71
2021/01/25 12:18:46;;;;;;;18.23;9.23;;;2.60;99.90;;;;;;4980781;28;20489;-71
2021/01/25 12:21:13;;;;;;;17.43;10.30;;;2.70;99.90;;;;;;4979841;28;20046;-71
2021/01/25 12:23:40;;;;;;;18.23;9.97;;;2.90;99.90;;;;;;4981995;28;20086;-68
2021/01/25 12:26:08;;;;;;;16.50;9.03;;;2.90;99.90;;;;;;4987816;28;20058;-69
2021/01/25 12:28:34;;;;;;;18.20;9.90;;;2.90;99.90;;;;;;4987551;28;20046;-70
2021/01/25 12:31:04;;;;;;;20.63;10.17;;;3.00;99.90;;;;;;4987169;28;20190;-70
2021/01/25 12:33:31;;;;;;;18.47;9.63;;;2.90;99.90;;;;;;4986642;28;20054;-70
2021/01/25 12:35:58;;;;;;;17.57;10.30;;;3.10;99.90;;;;;;4984825;28;20078;-70
2021/01/25 12:38:24;;;;;;;16.30;9.40;;;3.50;99.90;;;;;;4989722;28;20414;-70